createdAt,value
2022-09-30T00:01:45.026Z,3.20
2022-09-30T00:04:21.730Z,3.20
2022-09-30T00:06:53.097Z,3.47
2022-09-30T00:09:21.850Z,3.42
2022-09-30T00:11:49.465Z,2.90
2022-09-30T00:14:20.870Z,3.00
2022-09-30T00:16:49.514Z,2.72
2022-09-30T00:19:17.188Z,3.17
2022-09-30T00:21:45.429Z,3.40
2022-09-30T00:24:13.203Z,3.30
2022-09-30T00:26:42.457Z,3.35
2022-09-30T00:29:11.360Z,3.50
2022-09-30T00:31:40.252Z,3.20
2022-09-30T00:34:08.119Z,2.92
2022-09-30T00:36:46.297Z,3.10
2022-09-30T00:39:16.886Z,2.88
2022-09-30T00:41:51.392Z,3.10
2022-09-30T00:44:40.236Z,3.25
2022-09-30T00:47:45.219Z,3.67
2022-09-30T00:50:18.882Z,3.40
2022-09-30T00:52:52.728Z,3.58
2022-09-30T00:56:03.840Z,3.53
2022-09-30T00:58:46.540Z,2.90
2022-09-30T01:01:15.438Z,3.30
2022-09-30T01:03:50.507Z,3.25
2022-09-30T01:06:19.574Z,3.42
2022-09-30T01:08:46.955Z,3.50
2022-09-30T01:11:19.383Z,3.30
2022-09-30T01:13:51.369Z,3.33
2022-09-30T01:16:47.541Z,3.20
2022-09-30T01:22:08.864Z,3.30
2022-09-30T01:24:58.895Z,3.80
2022-09-30T01:28:21.030Z,3.40
2022-09-30T01:31:03.012Z,3.42
2022-09-30T01:33:41.470Z,3.22
2022-09-30T01:36:18.452Z,3.08
2022-09-30T01:39:19.942Z,3.55
2022-09-30T01:42:08.790Z,3.28
2022-09-30T01:45:03.148Z,3.53
2022-09-30T01:47:46.852Z,3.38
2022-09-30T01:50:28.188Z,3.25
2022-09-30T01:53:06.799Z,3.60
2022-09-30T01:56:07.092Z,3.95
2022-09-30T01:58:42.343Z,3.58
2022-09-30T02:01:19.107Z,3.60
2022-09-30T02:03:55.823Z,3.30
2022-09-30T02:06:34.096Z,3.20
2022-09-30T02:09:22.980Z,3.28
2022-09-30T02:11:54.140Z,3.03
2022-09-30T02:14:39.423Z,3.50
2022-09-30T02:17:44.452Z,3.35
2022-09-30T02:20:21.837Z,3.00
2022-09-30T02:23:00.428Z,3.50
2022-09-30T02:25:36.049Z,3.45
2022-09-30T02:28:08.721Z,2.75
2022-09-30T02:30:39.494Z,3.05
2022-09-30T02:33:15.740Z,3.03
2022-09-30T02:36:24.112Z,3.00
2022-09-30T02:39:01.122Z,3.08
2022-09-30T02:41:33.491Z,3.05
2022-09-30T02:44:03.111Z,3.15
2022-09-30T02:47:02.735Z,3.00
2022-09-30T02:49:39.044Z,3.30
2022-09-30T02:52:16.187Z,2.92
2022-09-30T02:55:05.696Z,2.97
2022-09-30T02:57:39.886Z,3.00
2022-09-30T03:00:12.494Z,3.20
2022-09-30T03:02:41.847Z,3.13
2022-09-30T03:05:11.007Z,2.97
2022-09-30T03:07:38.747Z,2.97
2022-09-30T03:10:17.703Z,2.78
2022-09-30T03:12:50.202Z,3.40
2022-09-30T03:15:41.840Z,3.42
2022-09-30T03:18:36.643Z,3.30
2022-09-30T03:21:09.556Z,2.80
2022-09-30T03:23:54.581Z,3.20
2022-09-30T03:26:36.105Z,3.20
2022-09-30T03:29:03.972Z,2.95
2022-09-30T03:31:47.695Z,3.10
2022-09-30T03:34:27.722Z,3.35
2022-09-30T03:37:05.385Z,3.20
2022-09-30T03:39:46.039Z,3.50
2022-09-30T03:42:23.282Z,3.15
2022-09-30T03:45:08.578Z,3.50
2022-09-30T03:47:44.014Z,3.28
2022-09-30T03:50:15.867Z,3.40
2022-09-30T03:52:43.743Z,3.25
2022-09-30T03:55:12.554Z,3.05
2022-09-30T03:57:40.858Z,3.38
2022-09-30T04:00:08.679Z,3.58
2022-09-30T04:02:38.777Z,3.67
2022-09-30T04:05:06.805Z,3.42
2022-09-30T04:07:35.170Z,3.15
2022-09-30T04:10:07.794Z,3.17
2022-09-30T04:12:35.914Z,3.50
2022-09-30T04:15:03.524Z,3.42
2022-09-30T04:17:31.989Z,3.50
2022-09-30T04:19:59.837Z,4.00
2022-09-30T04:22:27.274Z,3.75
2022-09-30T04:27:22.408Z,3.30
2022-09-30T04:34:46.139Z,3.78
2022-09-30T04:37:14.190Z,3.65
2022-09-30T04:39:41.570Z,3.58
2022-09-30T04:42:10.115Z,3.33
2022-09-30T04:44:37.547Z,3.15
2022-09-30T04:47:07.680Z,3.40
2022-09-30T04:49:35.054Z,3.25
2022-09-30T04:54:30.456Z,3.47
2022-09-30T08:48:28.980Z,2.33
2022-09-30T08:51:03.431Z,2.10
2022-09-30T08:53:43.774Z,2.15
2022-09-30T08:56:23.405Z,1.92
2022-09-30T08:59:00.072Z,2.15
2022-09-30T09:01:51.941Z,1.83
2022-09-30T09:04:20.050Z,1.70
2022-09-30T09:06:59.689Z,1.75
2022-09-30T09:09:47.987Z,1.85
2022-09-30T09:12:31.156Z,1.35
2022-09-30T09:15:09.373Z,1.30
2022-09-30T09:18:18.365Z,1.75
2022-09-30T09:21:14.243Z,1.13
2022-09-30T09:23:44.601Z,1.92
2022-09-30T09:26:16.362Z,1.55
2022-09-30T09:28:57.930Z,1.20
2022-09-30T09:31:26.315Z,1.08
2022-09-30T09:34:01.003Z,1.40
2022-09-30T09:36:47.165Z,1.80
2022-09-30T09:39:42.580Z,1.90
2022-09-30T09:42:42.426Z,1.85
2022-09-30T09:45:23.627Z,1.95
2022-09-30T09:47:53.302Z,1.20
2022-09-30T09:50:50.910Z,1.40
2022-09-30T09:53:33.653Z,2.03
2022-09-30T09:56:03.874Z,1.70
2022-09-30T09:58:34.219Z,1.40
2022-09-30T10:01:31.325Z,1.55
2022-09-30T10:04:12.015Z,1.30
2022-09-30T10:06:49.374Z,1.40
2022-09-30T10:09:40.685Z,1.27
2022-09-30T10:12:08.108Z,1.73
2022-09-30T10:14:47.947Z,0.90
2022-09-30T10:17:35.753Z,0.90
2022-09-30T10:20:29.597Z,1.55
2022-09-30T10:23:18.723Z,1.30
2022-09-30T10:26:01.046Z,0.70
2022-09-30T10:28:32.618Z,0.60
2022-09-30T10:31:14.616Z,0.50
2022-09-30T10:33:59.520Z,0.52
2022-09-30T10:36:36.938Z,0.35
2022-09-30T10:39:30.414Z,0.47
2022-09-30T10:42:25.985Z,0.47
2022-09-30T10:45:07.310Z,0.57
2022-09-30T10:47:44.203Z,0.40
2022-09-30T10:50:19.524Z,0.45
2022-09-30T10:53:21.127Z,0.43
2022-09-30T10:55:50.997Z,0.40
2022-09-30T10:58:52.071Z,0.32
2022-09-30T11:01:47.475Z,0.45
2022-09-30T11:04:28.990Z,0.28
2022-09-30T11:07:10.790Z,0.22
2022-09-30T11:09:46.826Z,0.40
2022-09-30T11:12:28.915Z,0.30
2022-09-30T11:15:13.067Z,0.65
2022-09-30T11:17:53.348Z,0.80
2022-09-30T11:20:26.721Z,0.50
2022-09-30T11:23:04.338Z,0.68
2022-09-30T11:26:07.067Z,0.35
2022-09-30T11:29:25.226Z,0.30
2022-09-30T11:32:05.435Z,0.60
2022-09-30T11:34:52.760Z,0.38
2022-09-30T11:38:02.495Z,1.65
2022-09-30T11:40:46.892Z,1.35
2022-09-30T11:43:30.797Z,0.80
2022-09-30T11:46:11.705Z,0.90
2022-09-30T11:48:46.493Z,1.30
2022-09-30T11:51:25.950Z,0.63
2022-09-30T11:54:24.258Z,1.13
2022-09-30T11:56:58.697Z,0.93
2022-09-30T11:59:39.326Z,1.00
2022-09-30T12:02:29.529Z,0.77
2022-09-30T12:05:03.750Z,0.63
2022-09-30T12:07:45.526Z,0.60
2022-09-30T12:10:25.183Z,0.93
2022-09-30T12:12:59.419Z,1.08
2022-09-30T12:15:28.599Z,0.70
2022-09-30T12:18:04.705Z,0.70
2022-09-30T12:20:46.964Z,0.90
2022-09-30T12:23:19.843Z,0.70
2022-09-30T12:26:00.647Z,0.82
2022-09-30T12:28:58.905Z,0.85
2022-09-30T12:31:36.998Z,1.00
2022-09-30T12:34:12.031Z,1.10
2022-09-30T12:36:55.063Z,0.73
2022-09-30T12:40:06.005Z,1.02
2022-09-30T12:42:42.276Z,1.02
2022-09-30T12:45:38.706Z,0.68
2022-09-30T12:50:47.801Z,0.75
2022-09-30T12:53:23.679Z,0.90
2022-09-30T12:55:52.517Z,0.70
2022-09-30T12:58:22.199Z,0.80
2022-09-30T13:01:06.741Z,0.60
2022-09-30T13:03:53.315Z,0.70
2022-09-30T13:06:22.550Z,0.73
2022-09-30T13:09:14.668Z,0.95
2022-09-30T13:11:44.279Z,1.05
2022-09-30T13:14:25.840Z,1.33
2022-09-30T13:17:01.422Z,1.00
2022-09-30T13:19:44.727Z,1.67
2022-09-30T13:22:19.537Z,0.75
2022-09-30T13:24:58.207Z,0.75
2022-09-30T13:27:37.439Z,0.68
2022-09-30T13:30:15.640Z,0.73
2022-09-30T13:33:02.675Z,1.00
2022-09-30T13:35:51.127Z,0.82
2022-09-30T13:38:33.812Z,0.60
2022-09-30T13:41:20.659Z,0.68
2022-09-30T13:44:27.614Z,0.60
2022-09-30T13:47:02.655Z,1.08
2022-09-30T13:49:52.507Z,0.77
2022-09-30T13:52:28.233Z,1.08
2022-09-30T13:55:00.016Z,1.07
2022-09-30T13:57:45.404Z,1.42
2022-09-30T14:00:18.122Z,1.50
2022-09-30T14:03:16.967Z,0.90
2022-09-30T14:06:00.224Z,0.70
2022-09-30T14:08:55.279Z,0.85
2022-09-30T14:11:41.069Z,0.77
2022-09-30T14:14:31.159Z,1.00
2022-09-30T14:17:15.358Z,0.90
2022-09-30T14:19:58.791Z,0.60
2022-09-30T14:22:30.190Z,1.10
2022-09-30T14:24:58.133Z,0.90
2022-09-30T14:27:46.088Z,0.80
2022-09-30T14:30:25.186Z,0.75
2022-09-30T14:33:24.760Z,0.68
2022-09-30T14:35:55.385Z,0.80
2022-09-30T14:38:30.134Z,0.73
2022-09-30T14:41:06.386Z,1.27
2022-09-30T14:43:43.189Z,0.85
2022-09-30T14:46:25.068Z,1.42
2022-09-30T14:48:54.812Z,1.00
2022-09-30T14:51:23.974Z,1.10
2022-09-30T14:53:55.239Z,1.15
2022-09-30T14:56:27.424Z,1.05
2022-09-30T14:58:59.440Z,0.70
2022-09-30T15:01:35.806Z,0.80
2022-09-30T15:04:14.168Z,1.15
2022-09-30T15:06:53.263Z,0.82
2022-09-30T15:09:31.459Z,0.90
2022-09-30T15:12:11.156Z,0.80
2022-09-30T15:15:01.308Z,0.70
2022-09-30T15:17:35.606Z,0.80
2022-09-30T15:20:35.677Z,0.50
2022-09-30T15:23:10.744Z,1.20
2022-09-30T15:25:40.014Z,0.50
2022-09-30T15:28:10.855Z,2.88
2022-09-30T15:30:38.820Z,1.05
2022-09-30T15:33:07.225Z,1.73
2022-09-30T15:35:36.394Z,0.68
2022-09-30T15:38:15.524Z,0.80
2022-09-30T15:40:59.225Z,2.50
2022-09-30T15:43:33.444Z,1.88
2022-09-30T15:46:18.251Z,1.60
2022-09-30T15:48:49.541Z,1.20
2022-09-30T15:51:31.058Z,1.15
2022-09-30T15:54:01.736Z,2.38
2022-09-30T15:56:30.857Z,1.00
2022-09-30T15:58:59.299Z,1.17
2022-09-30T16:01:45.825Z,1.00
2022-09-30T16:04:16.460Z,0.95
2022-09-30T16:06:51.849Z,1.10
2022-09-30T16:09:32.849Z,1.23
2022-09-30T16:12:09.855Z,1.13
2022-09-30T16:17:20.033Z,1.73
2022-09-30T16:19:59.141Z,1.25
2022-09-30T16:22:34.108Z,1.45
2022-09-30T16:25:17.062Z,1.30
2022-09-30T16:27:44.822Z,1.65
2022-09-30T16:30:20.232Z,2.20
2022-09-30T16:32:54.057Z,2.15
2022-09-30T16:35:24.260Z,2.17
2022-09-30T16:38:02.096Z,1.63
2022-09-30T16:40:31.554Z,1.58
2022-09-30T16:43:03.270Z,1.38
2022-09-30T16:45:34.056Z,1.63
2022-09-30T16:48:02.461Z,1.88
2022-09-30T16:50:43.920Z,1.80
2022-09-30T16:53:12.627Z,1.80
2022-09-30T16:55:41.073Z,1.65
2022-09-30T16:58:12.324Z,1.60
2022-09-30T17:00:46.895Z,3.15
2022-09-30T17:03:18.490Z,2.30
2022-09-30T17:05:52.704Z,2.25
2022-09-30T17:08:23.327Z,3.70
2022-09-30T17:10:51.233Z,4.32
2022-09-30T17:13:18.915Z,2.95
2022-09-30T17:15:51.778Z,2.60
2022-09-30T17:18:20.681Z,2.10
2022-09-30T17:20:53.032Z,2.70
2022-09-30T17:23:23.124Z,2.30
2022-09-30T17:25:51.388Z,3.00
2022-09-30T17:28:20.147Z,4.07
2022-09-30T17:30:49.405Z,3.40
2022-09-30T17:33:19.894Z,3.05
2022-09-30T17:35:59.439Z,3.50
2022-09-30T17:38:29.174Z,2.63
2022-09-30T17:41:15.444Z,2.78
2022-09-30T17:43:48.074Z,2.00
2022-09-30T17:46:22.549Z,2.65
2022-09-30T17:48:54.287Z,1.80
2022-09-30T17:51:22.136Z,1.60
2022-09-30T17:53:49.701Z,2.30
2022-09-30T17:56:22.429Z,1.45
2022-09-30T17:58:51.192Z,1.58
2022-09-30T18:01:21.209Z,2.40
2022-09-30T18:03:53.753Z,2.05
2022-09-30T18:06:21.313Z,1.40
2022-09-30T18:08:56.144Z,1.20
2022-09-30T18:11:26.126Z,1.58
2022-09-30T18:13:57.885Z,2.42
2022-09-30T18:16:30.489Z,2.03
2022-09-30T18:19:03.126Z,2.58
2022-09-30T18:21:33.933Z,2.78
2022-09-30T18:24:04.707Z,2.13
2022-09-30T18:26:33.462Z,2.10
2022-09-30T18:29:05.392Z,2.28
2022-09-30T18:31:37.230Z,1.85
2022-09-30T18:34:06.658Z,2.05
2022-09-30T18:36:37.395Z,1.90
2022-09-30T18:39:05.598Z,1.90
2022-09-30T18:41:35.809Z,2.80
2022-09-30T18:44:04.181Z,2.70
2022-09-30T18:46:32.012Z,2.75
2022-09-30T18:48:59.892Z,3.10
2022-09-30T18:51:27.700Z,2.33
2022-09-30T18:53:57.905Z,2.25
2022-09-30T18:56:31.364Z,2.40
2022-09-30T18:59:02.723Z,1.52
2022-09-30T19:01:34.098Z,1.67
2022-09-30T19:04:03.349Z,1.98
2022-09-30T19:06:30.800Z,1.65
2022-09-30T19:08:58.606Z,1.50
2022-09-30T19:11:30.257Z,1.77
2022-09-30T19:14:02.846Z,1.55
2022-09-30T19:16:35.302Z,1.70
2022-09-30T19:19:10.436Z,1.45
2022-09-30T19:21:39.861Z,1.35
2022-09-30T19:24:11.094Z,0.93
2022-09-30T19:26:39.463Z,1.10
2022-09-30T19:29:09.549Z,2.00
2022-09-30T19:31:38.060Z,1.48
2022-09-30T19:34:06.489Z,1.58
2022-09-30T19:36:45.458Z,1.58
2022-09-30T19:39:17.104Z,1.45
2022-09-30T19:41:46.308Z,1.90
2022-09-30T19:44:19.117Z,2.00
2022-09-30T19:46:50.324Z,1.58
2022-09-30T19:49:18.862Z,2.00
2022-09-30T19:51:46.435Z,1.58
2022-09-30T19:54:13.917Z,1.60
2022-09-30T19:56:41.342Z,1.45
2022-09-30T19:59:09.582Z,1.35
2022-09-30T20:01:38.281Z,1.20
2022-09-30T20:04:06.132Z,2.38
2022-09-30T20:06:35.106Z,1.90
2022-09-30T20:09:06.299Z,1.65
2022-09-30T20:11:36.376Z,1.80
2022-09-30T20:14:25.999Z,1.75
2022-09-30T20:16:55.253Z,2.33
2022-09-30T20:19:23.137Z,2.20
2022-09-30T20:21:53.963Z,2.40
2022-09-30T20:24:22.591Z,1.92
2022-09-30T20:26:50.827Z,1.83
2022-09-30T20:29:20.632Z,1.50
2022-09-30T20:31:49.293Z,1.35
2022-09-30T20:34:19.040Z,1.77
2022-09-30T20:36:49.153Z,2.47
2022-09-30T20:39:16.609Z,1.92
2022-09-30T20:41:45.312Z,2.10
2022-09-30T20:44:13.702Z,1.42
2022-09-30T20:46:41.828Z,1.90
2022-09-30T20:49:09.551Z,1.92
2022-09-30T20:51:37.829Z,2.05
2022-09-30T20:54:05.231Z,1.92
2022-09-30T20:56:50.013Z,2.08
2022-09-30T20:59:24.219Z,2.47
2022-09-30T21:01:52.194Z,1.83
2022-09-30T21:04:19.632Z,2.35
2022-09-30T21:06:47.871Z,1.90
2022-09-30T21:09:15.673Z,1.55
2022-09-30T21:11:44.327Z,1.85
2022-09-30T21:14:12.154Z,1.80
2022-09-30T21:16:40.824Z,1.63
2022-09-30T21:19:09.033Z,1.40
2022-09-30T21:21:36.517Z,2.17
2022-09-30T21:24:04.449Z,2.30
2022-09-30T21:26:33.600Z,1.52
2022-09-30T21:29:02.552Z,1.77
2022-09-30T21:31:30.745Z,1.80
2022-09-30T21:33:59.767Z,1.52
2022-09-30T21:36:32.990Z,1.23
2022-09-30T21:39:02.532Z,1.52
2022-09-30T21:41:32.824Z,1.20
2022-09-30T21:44:01.859Z,1.10
2022-09-30T21:46:29.649Z,1.38
2022-09-30T21:49:05.306Z,1.35
2022-09-30T21:51:35.458Z,1.23
2022-09-30T21:54:03.768Z,1.50
2022-09-30T21:56:31.960Z,0.70
2022-09-30T21:58:59.463Z,1.00
2022-09-30T22:01:27.010Z,0.90
2022-09-30T22:03:55.359Z,0.80
2022-09-30T22:06:24.567Z,1.02
2022-09-30T22:08:52.027Z,0.80
2022-09-30T22:11:23.892Z,1.00
2022-09-30T22:13:57.590Z,1.23
2022-09-30T22:16:30.081Z,1.25
2022-09-30T22:19:00.871Z,0.70
2022-09-30T22:21:33.758Z,0.88
2022-09-30T22:24:05.894Z,0.60
2022-09-30T22:26:33.389Z,0.80
2022-09-30T22:29:05.060Z,1.00
2022-09-30T22:31:33.815Z,1.05
2022-09-30T22:34:23.591Z,0.98
2022-09-30T22:37:10.736Z,0.82
2022-09-30T22:39:39.609Z,0.50
2022-09-30T22:42:07.543Z,0.55
2022-09-30T22:44:37.846Z,0.88
2022-09-30T22:47:08.055Z,0.55
2022-09-30T22:49:36.310Z,0.65
2022-09-30T22:52:04.187Z,0.60
2022-09-30T22:54:35.244Z,1.08
2022-09-30T22:57:03.283Z,0.80
2022-09-30T22:59:30.779Z,0.63
2022-09-30T23:01:58.884Z,0.60
2022-09-30T23:04:27.011Z,0.50
2022-09-30T23:06:55.791Z,0.60
2022-09-30T23:09:26.735Z,0.52
2022-09-30T23:11:55.490Z,0.40
2022-09-30T23:14:23.076Z,0.40
2022-09-30T23:16:51.334Z,0.60
2022-09-30T23:19:19.976Z,0.40
2022-09-30T23:21:48.935Z,0.40
2022-09-30T23:24:16.416Z,0.28
2022-09-30T23:26:44.292Z,0.60
2022-09-30T23:29:13.691Z,0.40
2022-09-30T23:31:43.472Z,0.40
2022-09-30T23:34:12.081Z,0.55
2022-09-30T23:36:39.803Z,0.40
2022-09-30T23:39:12.781Z,0.47
2022-09-30T23:41:40.891Z,0.50
2022-09-30T23:44:10.075Z,1.02
2022-09-30T23:47:02.729Z,0.60
2022-09-30T23:49:35.807Z,0.35
2022-09-30T23:52:12.879Z,0.35
2022-09-30T23:54:42.289Z,0.30
2022-09-30T23:57:11.858Z,0.60
2022-09-30T23:59:40.743Z,0.45
